sensor_id;sensor_type;location;lat;lon;timestamp;temperature;humidity
37528;DHT22;23372;52.050;4.810;2023-11-22T00:00:08;5.70;99.90
37528;DHT22;23372;52.050;4.810;2023-11-22T00:02:35;5.70;99.90
37528;DHT22;23372;52.050;4.810;2023-11-22T00:05:00;5.70;99.90
37528;DHT22;23372;52.050;4.810;2023-11-22T00:07:26;5.70;99.90
37528;DHT22;23372;52.050;4.810;2023-11-22T00:09:55;5.60;99.90
37528;DHT22;23372;52.050;4.810;2023-11-22T00:12:21;5.60;99.90
37528;DHT22;23372;52.050;4.810;2023-11-22T00:14:48;5.50;99.90
37528;DHT22;23372;52.050;4.810;2023-11-22T00:17:14;5.50;99.90
37528;DHT22;23372;52.050;4.810;2023-11-22T00:19:39;5.50;99.90
37528;DHT22;23372;52.050;4.810;2023-11-22T00:22:05;5.40;99.90
37528;DHT22;23372;52.050;4.810;2023-11-22T00:24:38;5.30;99.90
37528;DHT22;23372;52.050;4.810;2023-11-22T00:27:04;5.30;99.90
37528;DHT22;23372;52.050;4.810;2023-11-22T00:29:30;5.30;99.90
37528;DHT22;23372;52.050;4.810;2023-11-22T00:31:56;5.30;99.90
37528;DHT22;23372;52.050;4.810;2023-11-22T00:34:21;5.30;99.90
37528;DHT22;23372;52.050;4.810;2023-11-22T00:36:48;5.20;99.90
37528;DHT22;23372;52.050;4.810;2023-11-22T00:39:14;5.20;99.90
37528;DHT22;23372;52.050;4.810;2023-11-22T00:41:40;5.20;99.90
37528;DHT22;23372;52.050;4.810;2023-11-22T00:44:05;5.10;99.90
37528;DHT22;23372;52.050;4.810;2023-11-22T00:46:34;5.10;99.90
37528;DHT22;23372;52.050;4.810;2023-11-22T00:49:00;5.20;99.90
37528;DHT22;23372;52.050;4.810;2023-11-22T00:51:25;5.20;99.90
37528;DHT22;23372;52.050;4.810;2023-11-22T00:53:51;5.20;99.90
37528;DHT22;23372;52.050;4.810;2023-11-22T00:56:17;5.20;99.90
37528;DHT22;23372;52.050;4.810;2023-11-22T00:58:42;5.20;99.90
37528;DHT22;23372;52.050;4.810;2023-11-22T01:01:08;5.20;99.90
37528;DHT22;23372;52.050;4.810;2023-11-22T01:03:34;5.20;99.90
37528;DHT22;23372;52.050;4.810;2023-11-22T01:06:01;5.20;99.90
37528;DHT22;23372;52.050;4.810;2023-11-22T01:08:26;5.20;99.90
37528;DHT22;23372;52.050;4.810;2023-11-22T01:10:52;5.20;99.90
37528;DHT22;23372;52.050;4.810;2023-11-22T01:13:18;5.20;99.90
37528;DHT22;23372;52.050;4.810;2023-11-22T01:15:43;5.30;99.90
37528;DHT22;23372;52.050;4.810;2023-11-22T01:18:10;5.30;99.90
37528;DHT22;23372;52.050;4.810;2023-11-22T01:20:35;5.30;99.90
37528;DHT22;23372;52.050;4.810;2023-11-22T01:23:01;5.40;99.90
37528;DHT22;23372;52.050;4.810;2023-11-22T01:25:27;5.50;99.90
37528;DHT22;23372;52.050;4.810;2023-11-22T01:27:53;5.50;99.90
37528;DHT22;23372;52.050;4.810;2023-11-22T01:30:19;5.50;99.90
37528;DHT22;23372;52.050;4.810;2023-11-22T01:32:44;5.40;99.90
37528;DHT22;23372;52.050;4.810;2023-11-22T01:35:10;5.40;99.90
37528;DHT22;23372;52.050;4.810;2023-11-22T01:37:35;5.40;99.90
37528;DHT22;23372;52.050;4.810;2023-11-22T01:40:02;5.40;99.90
37528;DHT22;23372;52.050;4.810;2023-11-22T01:42:29;5.40;99.90
37528;DHT22;23372;52.050;4.810;2023-11-22T01:44:54;5.40;99.90
37528;DHT22;23372;52.050;4.810;2023-11-22T01:47:20;5.40;99.90
37528;DHT22;23372;52.050;4.810;2023-11-22T01:49:46;5.40;99.90
37528;DHT22;23372;52.050;4.810;2023-11-22T01:52:12;5.30;99.90
37528;DHT22;23372;52.050;4.810;2023-11-22T01:54:38;5.40;99.90
37528;DHT22;23372;52.050;4.810;2023-11-22T01:57:05;5.40;99.90
37528;DHT22;23372;52.050;4.810;2023-11-22T01:59:33;5.40;99.90
37528;DHT22;23372;52.050;4.810;2023-11-22T02:01:59;5.40;99.90
37528;DHT22;23372;52.050;4.810;2023-11-22T02:04:24;5.40;99.90
37528;DHT22;23372;52.050;4.810;2023-11-22T02:06:51;5.40;99.90
37528;DHT22;23372;52.050;4.810;2023-11-22T02:09:16;5.40;99.90
37528;DHT22;23372;52.050;4.810;2023-11-22T02:11:43;5.40;99.90
37528;DHT22;23372;52.050;4.810;2023-11-22T02:14:11;5.30;99.90
37528;DHT22;23372;52.050;4.810;2023-11-22T02:16:37;5.40;99.90
37528;DHT22;23372;52.050;4.810;2023-11-22T02:19:04;5.30;99.90
37528;DHT22;23372;52.050;4.810;2023-11-22T02:21:35;5.20;99.90
37528;DHT22;23372;52.050;4.810;2023-11-22T02:24:00;5.20;99.90
37528;DHT22;23372;52.050;4.810;2023-11-22T02:26:27;5.10;99.90
37528;DHT22;23372;52.050;4.810;2023-11-22T02:28:52;5.10;99.90
37528;DHT22;23372;52.050;4.810;2023-11-22T02:31:18;5.00;99.90
37528;DHT22;23372;52.050;4.810;2023-11-22T02:33:44;5.00;99.90
37528;DHT22;23372;52.050;4.810;2023-11-22T02:36:09;5.00;99.90
37528;DHT22;23372;52.050;4.810;2023-11-22T02:38:38;5.00;99.90
37528;DHT22;23372;52.050;4.810;2023-11-22T02:41:04;5.00;99.90
37528;DHT22;23372;52.050;4.810;2023-11-22T02:43:30;5.00;99.90
37528;DHT22;23372;52.050;4.810;2023-11-22T02:45:55;4.90;99.90
37528;DHT22;23372;52.050;4.810;2023-11-22T02:48:21;4.90;99.90
37528;DHT22;23372;52.050;4.810;2023-11-22T02:50:47;4.90;99.90
37528;DHT22;23372;52.050;4.810;2023-11-22T02:53:14;4.90;99.90
37528;DHT22;23372;52.050;4.810;2023-11-22T02:55:40;4.90;99.90
37528;DHT22;23372;52.050;4.810;2023-11-22T02:58:06;4.90;99.90
37528;DHT22;23372;52.050;4.810;2023-11-22T03:00:32;4.80;99.90
37528;DHT22;23372;52.050;4.810;2023-11-22T03:03:00;4.80;99.90
37528;DHT22;23372;52.050;4.810;2023-11-22T03:05:25;4.70;99.90
37528;DHT22;23372;52.050;4.810;2023-11-22T03:07:51;4.70;99.90
37528;DHT22;23372;52.050;4.810;2023-11-22T03:10:17;4.60;99.90
37528;DHT22;23372;52.050;4.810;2023-11-22T03:12:46;4.60;99.90
37528;DHT22;23372;52.050;4.810;2023-11-22T03:15:11;4.60;99.90
37528;DHT22;23372;52.050;4.810;2023-11-22T03:17:37;4.60;99.90
37528;DHT22;23372;52.050;4.810;2023-11-22T03:20:04;4.50;99.90
37528;DHT22;23372;52.050;4.810;2023-11-22T03:22:34;4.50;99.90
37528;DHT22;23372;52.050;4.810;2023-11-22T03:25:03;4.50;99.90
37528;DHT22;23372;52.050;4.810;2023-11-22T03:27:30;4.50;99.90
37528;DHT22;23372;52.050;4.810;2023-11-22T03:29:55;4.60;99.90
37528;DHT22;23372;52.050;4.810;2023-11-22T03:32:21;4.60;99.90
37528;DHT22;23372;52.050;4.810;2023-11-22T03:34:47;4.60;99.90
37528;DHT22;23372;52.050;4.810;2023-11-22T03:37:12;4.60;99.90
37528;DHT22;23372;52.050;4.810;2023-11-22T03:39:38;4.70;99.90
37528;DHT22;23372;52.050;4.810;2023-11-22T03:42:04;4.70;99.90
37528;DHT22;23372;52.050;4.810;2023-11-22T03:44:30;4.70;99.90
37528;DHT22;23372;52.050;4.810;2023-11-22T03:46:55;4.70;99.90
37528;DHT22;23372;52.050;4.810;2023-11-22T03:49:21;4.70;99.90
37528;DHT22;23372;52.050;4.810;2023-11-22T03:51:47;4.70;99.90
37528;DHT22;23372;52.050;4.810;2023-11-22T03:54:14;4.70;99.90
37528;DHT22;23372;52.050;4.810;2023-11-22T03:56:40;4.70;99.90
37528;DHT22;23372;52.050;4.810;2023-11-22T03:59:05;4.80;99.90
37528;DHT22;23372;52.050;4.810;2023-11-22T04:01:31;4.80;99.90
37528;DHT22;23372;52.050;4.810;2023-11-22T04:03:56;4.70;99.90
37528;DHT22;23372;52.050;4.810;2023-11-22T04:06:22;4.70;99.90
37528;DHT22;23372;52.050;4.810;2023-11-22T04:08:51;4.70;99.90
37528;DHT22;23372;52.050;4.810;2023-11-22T04:11:18;4.80;99.90
37528;DHT22;23372;52.050;4.810;2023-11-22T04:13:44;4.70;99.90
37528;DHT22;23372;52.050;4.810;2023-11-22T04:16:10;4.70;99.90
37528;DHT22;23372;52.050;4.810;2023-11-22T04:18:39;4.80;99.90
37528;DHT22;23372;52.050;4.810;2023-11-22T04:21:06;4.80;99.90
37528;DHT22;23372;52.050;4.810;2023-11-22T04:23:32;4.80;99.90
37528;DHT22;23372;52.050;4.810;2023-11-22T04:26:01;4.80;99.90
37528;DHT22;23372;52.050;4.810;2023-11-22T04:28:27;4.80;99.90
37528;DHT22;23372;52.050;4.810;2023-11-22T04:30:53;4.80;99.90
37528;DHT22;23372;52.050;4.810;2023-11-22T04:33:19;4.80;99.90
37528;DHT22;23372;52.050;4.810;2023-11-22T04:35:46;4.80;99.90
37528;DHT22;23372;52.050;4.810;2023-11-22T04:38:11;4.80;99.90
37528;DHT22;23372;52.050;4.810;2023-11-22T04:40:37;4.80;99.90
37528;DHT22;23372;52.050;4.810;2023-11-22T04:43:03;4.80;99.90
37528;DHT22;23372;52.050;4.810;2023-11-22T04:45:28;4.80;99.90
37528;DHT22;23372;52.050;4.810;2023-11-22T04:47:54;4.80;99.90
37528;DHT22;23372;52.050;4.810;2023-11-22T04:50:22;4.80;99.90
37528;DHT22;23372;52.050;4.810;2023-11-22T04:52:49;4.80;99.90
37528;DHT22;23372;52.050;4.810;2023-11-22T04:55:15;4.90;99.90
37528;DHT22;23372;52.050;4.810;2023-11-22T04:57:41;4.90;99.90
37528;DHT22;23372;52.050;4.810;2023-11-22T05:00:07;4.90;99.90
37528;DHT22;23372;52.050;4.810;2023-11-22T05:02:33;4.90;99.90
37528;DHT22;23372;52.050;4.810;2023-11-22T05:04:58;4.80;99.90
37528;DHT22;23372;52.050;4.810;2023-11-22T05:07:24;4.90;99.90
37528;DHT22;23372;52.050;4.810;2023-11-22T05:09:49;4.90;99.90
37528;DHT22;23372;52.050;4.810;2023-11-22T05:12:15;4.90;99.90
37528;DHT22;23372;52.050;4.810;2023-11-22T05:14:41;4.90;99.90
37528;DHT22;23372;52.050;4.810;2023-11-22T05:17:09;4.90;99.90
37528;DHT22;23372;52.050;4.810;2023-11-22T05:19:34;4.90;99.90
37528;DHT22;23372;52.050;4.810;2023-11-22T05:22:00;4.90;99.90
37528;DHT22;23372;52.050;4.810;2023-11-22T05:24:26;4.90;99.90
37528;DHT22;23372;52.050;4.810;2023-11-22T05:26:51;4.90;99.90
37528;DHT22;23372;52.050;4.810;2023-11-22T05:29:17;4.90;99.90
37528;DHT22;23372;52.050;4.810;2023-11-22T05:31:42;4.90;99.90
37528;DHT22;23372;52.050;4.810;2023-11-22T05:34:08;5.00;99.90
37528;DHT22;23372;52.050;4.810;2023-11-22T05:36:33;5.00;99.90
37528;DHT22;23372;52.050;4.810;2023-11-22T05:38:59;5.10;99.90
37528;DHT22;23372;52.050;4.810;2023-11-22T05:41:25;5.00;99.90
37528;DHT22;23372;52.050;4.810;2023-11-22T05:43:54;5.00;99.90
37528;DHT22;23372;52.050;4.810;2023-11-22T05:46:23;5.00;99.90
37528;DHT22;23372;52.050;4.810;2023-11-22T05:48:51;4.90;99.90
37528;DHT22;23372;52.050;4.810;2023-11-22T05:51:17;4.90;99.90
37528;DHT22;23372;52.050;4.810;2023-11-22T05:53:43;4.80;99.90
37528;DHT22;23372;52.050;4.810;2023-11-22T05:56:08;4.80;99.90
37528;DHT22;23372;52.050;4.810;2023-11-22T05:58:34;4.80;99.90
37528;DHT22;23372;52.050;4.810;2023-11-22T06:01:06;4.80;99.90
37528;DHT22;23372;52.050;4.810;2023-11-22T06:03:33;4.70;99.90
37528;DHT22;23372;52.050;4.810;2023-11-22T06:05:59;4.70;99.90
37528;DHT22;23372;52.050;4.810;2023-11-22T06:08:24;4.80;99.90
37528;DHT22;23372;52.050;4.810;2023-11-22T06:10:50;4.70;99.90
37528;DHT22;23372;52.050;4.810;2023-11-22T06:13:17;4.70;99.90
37528;DHT22;23372;52.050;4.810;2023-11-22T06:15:42;4.80;99.90
37528;DHT22;23372;52.050;4.810;2023-11-22T06:18:08;4.80;99.90
37528;DHT22;23372;52.050;4.810;2023-11-22T06:20:34;4.80;99.90
37528;DHT22;23372;52.050;4.810;2023-11-22T06:22:59;4.80;99.90
37528;DHT22;23372;52.050;4.810;2023-11-22T06:25:25;4.70;99.90
37528;DHT22;23372;52.050;4.810;2023-11-22T06:27:50;4.60;99.90
37528;DHT22;23372;52.050;4.810;2023-11-22T06:30:16;4.60;99.90
37528;DHT22;23372;52.050;4.810;2023-11-22T06:32:42;4.60;99.90
37528;DHT22;23372;52.050;4.810;2023-11-22T06:35:09;4.50;99.90
37528;DHT22;23372;52.050;4.810;2023-11-22T06:37:35;4.50;99.90
37528;DHT22;23372;52.050;4.810;2023-11-22T06:40:01;4.50;99.90
37528;DHT22;23372;52.050;4.810;2023-11-22T06:42:27;4.50;99.90
37528;DHT22;23372;52.050;4.810;2023-11-22T06:44:53;4.40;99.90
37528;DHT22;23372;52.050;4.810;2023-11-22T06:47:19;4.40;99.90
37528;DHT22;23372;52.050;4.810;2023-11-22T06:49:45;4.30;99.90
37528;DHT22;23372;52.050;4.810;2023-11-22T06:52:10;4.30;99.90
37528;DHT22;23372;52.050;4.810;2023-11-22T06:54:36;4.20;99.90
37528;DHT22;23372;52.050;4.810;2023-11-22T06:57:02;4.20;99.90
37528;DHT22;23372;52.050;4.810;2023-11-22T06:59:28;4.30;99.90
37528;DHT22;23372;52.050;4.810;2023-11-22T07:01:54;4.30;99.90
37528;DHT22;23372;52.050;4.810;2023-11-22T07:04:21;4.30;99.90
37528;DHT22;23372;52.050;4.810;2023-11-22T07:06:48;4.30;99.90
37528;DHT22;23372;52.050;4.810;2023-11-22T07:09:14;4.30;99.90
37528;DHT22;23372;52.050;4.810;2023-11-22T07:11:40;4.40;99.90
37528;DHT22;23372;52.050;4.810;2023-11-22T07:14:05;4.30;99.90
37528;DHT22;23372;52.050;4.810;2023-11-22T07:16:32;4.30;99.90
37528;DHT22;23372;52.050;4.810;2023-11-22T07:18:59;4.30;99.90
37528;DHT22;23372;52.050;4.810;2023-11-22T07:21:25;4.40;99.90
37528;DHT22;23372;52.050;4.810;2023-11-22T07:23:51;4.50;99.90
37528;DHT22;23372;52.050;4.810;2023-11-22T07:26:17;4.50;99.90
37528;DHT22;23372;52.050;4.810;2023-11-22T07:28:43;4.50;99.90
37528;DHT22;23372;52.050;4.810;2023-11-22T07:31:09;4.50;99.90
37528;DHT22;23372;52.050;4.810;2023-11-22T07:33:35;4.50;99.90
37528;DHT22;23372;52.050;4.810;2023-11-22T07:36:01;4.30;99.90
37528;DHT22;23372;52.050;4.810;2023-11-22T07:38:28;4.20;99.90
37528;DHT22;23372;52.050;4.810;2023-11-22T07:40:54;4.20;99.90
37528;DHT22;23372;52.050;4.810;2023-11-22T07:43:21;4.20;99.90
37528;DHT22;23372;52.050;4.810;2023-11-22T07:45:47;4.20;99.90
37528;DHT22;23372;52.050;4.810;2023-11-22T07:48:14;4.20;99.90
37528;DHT22;23372;52.050;4.810;2023-11-22T07:50:39;4.30;99.90
37528;DHT22;23372;52.050;4.810;2023-11-22T07:53:12;4.30;99.90
37528;DHT22;23372;52.050;4.810;2023-11-22T07:55:38;4.30;99.90
37528;DHT22;23372;52.050;4.810;2023-11-22T07:58:04;4.30;99.90
37528;DHT22;23372;52.050;4.810;2023-11-22T08:00:33;4.30;99.90
37528;DHT22;23372;52.050;4.810;2023-11-22T08:03:07;4.10;99.90
37528;DHT22;23372;52.050;4.810;2023-11-22T08:05:32;4.30;99.90
37528;DHT22;23372;52.050;4.810;2023-11-22T08:08:05;4.40;99.90
37528;DHT22;23372;52.050;4.810;2023-11-22T08:10:36;4.40;99.90
37528;DHT22;23372;52.050;4.810;2023-11-22T08:13:03;4.40;99.90
37528;DHT22;23372;52.050;4.810;2023-11-22T08:15:29;4.50;99.90
37528;DHT22;23372;52.050;4.810;2023-11-22T08:17:57;4.50;99.90
37528;DHT22;23372;52.050;4.810;2023-11-22T08:20:22;4.50;99.90
37528;DHT22;23372;52.050;4.810;2023-11-22T08:22:48;4.50;99.90
37528;DHT22;23372;52.050;4.810;2023-11-22T08:25:16;4.60;99.90
37528;DHT22;23372;52.050;4.810;2023-11-22T08:27:43;4.60;99.90
37528;DHT22;23372;52.050;4.810;2023-11-22T08:30:09;4.80;99.90
37528;DHT22;23372;52.050;4.810;2023-11-22T08:32:42;5.00;99.90
37528;DHT22;23372;52.050;4.810;2023-11-22T08:35:09;5.10;99.90
37528;DHT22;23372;52.050;4.810;2023-11-22T08:37:35;5.30;99.90
37528;DHT22;23372;52.050;4.810;2023-11-22T08:40:07;5.50;99.90
37528;DHT22;23372;52.050;4.810;2023-11-22T08:42:33;5.70;99.90
37528;DHT22;23372;52.050;4.810;2023-11-22T08:45:01;5.90;99.90
37528;DHT22;23372;52.050;4.810;2023-11-22T08:47:28;5.90;99.90
37528;DHT22;23372;52.050;4.810;2023-11-22T08:49:53;5.80;99.90
37528;DHT22;23372;52.050;4.810;2023-11-22T08:52:19;5.80;99.90
37528;DHT22;23372;52.050;4.810;2023-11-22T08:54:45;5.80;99.90
37528;DHT22;23372;52.050;4.810;2023-11-22T08:57:11;5.70;99.90
37528;DHT22;23372;52.050;4.810;2023-11-22T08:59:37;5.80;99.90
37528;DHT22;23372;52.050;4.810;2023-11-22T09:02:04;5.60;99.90
37528;DHT22;23372;52.050;4.810;2023-11-22T09:04:30;5.80;99.90
37528;DHT22;23372;52.050;4.810;2023-11-22T09:06:57;5.90;99.90
37528;DHT22;23372;52.050;4.810;2023-11-22T09:09:23;6.00;99.90
37528;DHT22;23372;52.050;4.810;2023-11-22T09:11:59;6.00;99.90
37528;DHT22;23372;52.050;4.810;2023-11-22T09:14:25;6.30;99.90
37528;DHT22;23372;52.050;4.810;2023-11-22T09:16:51;6.60;99.90
37528;DHT22;23372;52.050;4.810;2023-11-22T09:19:23;6.90;99.90
37528;DHT22;23372;52.050;4.810;2023-11-22T09:21:50;7.30;99.90
37528;DHT22;23372;52.050;4.810;2023-11-22T09:24:16;7.40;99.90
37528;DHT22;23372;52.050;4.810;2023-11-22T09:26:41;7.50;99.90
37528;DHT22;23372;52.050;4.810;2023-11-22T09:29:08;7.50;99.90
37528;DHT22;23372;52.050;4.810;2023-11-22T09:31:35;7.40;99.90
37528;DHT22;23372;52.050;4.810;2023-11-22T09:34:01;7.20;99.90
37528;DHT22;23372;52.050;4.810;2023-11-22T09:36:28;7.20;99.90
37528;DHT22;23372;52.050;4.810;2023-11-22T09:38:55;7.00;99.90
37528;DHT22;23372;52.050;4.810;2023-11-22T09:41:21;6.70;99.90
37528;DHT22;23372;52.050;4.810;2023-11-22T09:43:46;6.70;99.90
37528;DHT22;23372;52.050;4.810;2023-11-22T09:46:15;6.70;99.90
37528;DHT22;23372;52.050;4.810;2023-11-22T09:48:43;6.70;99.90
37528;DHT22;23372;52.050;4.810;2023-11-22T09:51:29;6.60;99.90
37528;DHT22;23372;52.050;4.810;2023-11-22T09:53:59;6.70;99.90
37528;DHT22;23372;52.050;4.810;2023-11-22T09:56:27;6.70;99.90
37528;DHT22;23372;52.050;4.810;2023-11-22T09:58:54;6.70;99.90
37528;DHT22;23372;52.050;4.810;2023-11-22T10:01:24;6.70;99.90
37528;DHT22;23372;52.050;4.810;2023-11-22T10:03:50;6.70;99.90
37528;DHT22;23372;52.050;4.810;2023-11-22T10:06:17;6.70;99.90
37528;DHT22;23372;52.050;4.810;2023-11-22T10:08:43;6.70;99.90
37528;DHT22;23372;52.050;4.810;2023-11-22T10:11:09;6.70;99.90
37528;DHT22;23372;52.050;4.810;2023-11-22T10:13:34;6.70;99.90
37528;DHT22;23372;52.050;4.810;2023-11-22T10:16:13;6.80;99.90
37528;DHT22;23372;52.050;4.810;2023-11-22T10:18:48;7.00;99.90
37528;DHT22;23372;52.050;4.810;2023-11-22T10:21:21;7.20;99.90
37528;DHT22;23372;52.050;4.810;2023-11-22T10:23:47;7.50;99.90
37528;DHT22;23372;52.050;4.810;2023-11-22T10:26:13;7.60;99.90
37528;DHT22;23372;52.050;4.810;2023-11-22T10:28:42;7.80;99.90
37528;DHT22;23372;52.050;4.810;2023-11-22T10:31:09;7.70;99.90
37528;DHT22;23372;52.050;4.810;2023-11-22T10:33:39;7.80;99.90
37528;DHT22;23372;52.050;4.810;2023-11-22T10:36:06;7.70;99.90
37528;DHT22;23372;52.050;4.810;2023-11-22T10:38:34;7.40;99.90
37528;DHT22;23372;52.050;4.810;2023-11-22T10:40:59;7.30;99.90
37528;DHT22;23372;52.050;4.810;2023-11-22T10:43:28;7.30;99.90
37528;DHT22;23372;52.050;4.810;2023-11-22T10:45:58;7.30;99.90
37528;DHT22;23372;52.050;4.810;2023-11-22T10:48:24;7.20;99.90
37528;DHT22;23372;52.050;4.810;2023-11-22T10:50:53;7.00;99.90
37528;DHT22;23372;52.050;4.810;2023-11-22T10:53:30;7.00;99.90
37528;DHT22;23372;52.050;4.810;2023-11-22T10:56:14;7.10;99.90
37528;DHT22;23372;52.050;4.810;2023-11-22T10:58:49;7.20;99.90
37528;DHT22;23372;52.050;4.810;2023-11-22T11:01:21;7.40;99.90
37528;DHT22;23372;52.050;4.810;2023-11-22T11:03:59;7.50;99.90
37528;DHT22;23372;52.050;4.810;2023-11-22T11:06:28;7.30;99.90
37528;DHT22;23372;52.050;4.810;2023-11-22T11:09:03;7.30;99.90
37528;DHT22;23372;52.050;4.810;2023-11-22T11:11:32;7.20;99.90
37528;DHT22;23372;52.050;4.810;2023-11-22T11:13:58;7.30;99.90
37528;DHT22;23372;52.050;4.810;2023-11-22T11:16:25;7.00;99.90
37528;DHT22;23372;52.050;4.810;2023-11-22T11:18:53;6.90;99.90
37528;DHT22;23372;52.050;4.810;2023-11-22T11:21:20;7.00;99.90
37528;DHT22;23372;52.050;4.810;2023-11-22T11:23:45;7.10;99.90
37528;DHT22;23372;52.050;4.810;2023-11-22T11:26:15;6.90;99.90
37528;DHT22;23372;52.050;4.810;2023-11-22T11:28:48;7.00;99.90
37528;DHT22;23372;52.050;4.810;2023-11-22T11:31:14;7.00;99.90
37528;DHT22;23372;52.050;4.810;2023-11-22T11:36:26;6.80;99.90
37528;DHT22;23372;52.050;4.810;2023-11-22T11:38:54;6.90;99.90
37528;DHT22;23372;52.050;4.810;2023-11-22T11:41:25;7.10;99.90
37528;DHT22;23372;52.050;4.810;2023-11-22T11:43:52;7.20;99.90
37528;DHT22;23372;52.050;4.810;2023-11-22T11:46:18;7.30;99.90
37528;DHT22;23372;52.050;4.810;2023-11-22T11:48:51;7.30;99.90
37528;DHT22;23372;52.050;4.810;2023-11-22T11:51:18;7.30;99.90
37528;DHT22;23372;52.050;4.810;2023-11-22T11:53:45;7.30;99.90
37528;DHT22;23372;52.050;4.810;2023-11-22T11:56:11;7.40;99.90
37528;DHT22;23372;52.050;4.810;2023-11-22T11:58:37;7.50;99.90
37528;DHT22;23372;52.050;4.810;2023-11-22T12:01:05;7.50;99.90
37528;DHT22;23372;52.050;4.810;2023-11-22T12:03:32;7.50;99.90
37528;DHT22;23372;52.050;4.810;2023-11-22T12:05:58;7.60;99.90
37528;DHT22;23372;52.050;4.810;2023-11-22T12:08:23;7.70;99.90
37528;DHT22;23372;52.050;4.810;2023-11-22T12:10:49;7.60;99.90
37528;DHT22;23372;52.050;4.810;2023-11-22T12:13:20;7.60;99.90
37528;DHT22;23372;52.050;4.810;2023-11-22T12:15:46;7.60;99.90
37528;DHT22;23372;52.050;4.810;2023-11-22T12:18:12;7.60;99.90
37528;DHT22;23372;52.050;4.810;2023-11-22T12:20:39;7.60;99.90
37528;DHT22;23372;52.050;4.810;2023-11-22T12:23:05;7.70;99.90
37528;DHT22;23372;52.050;4.810;2023-11-22T12:25:32;7.70;99.90
37528;DHT22;23372;52.050;4.810;2023-11-22T12:27:58;7.70;99.90
37528;DHT22;23372;52.050;4.810;2023-11-22T12:30:34;7.70;99.90
37528;DHT22;23372;52.050;4.810;2023-11-22T12:33:02;7.60;99.90
37528;DHT22;23372;52.050;4.810;2023-11-22T12:35:28;7.60;99.90
37528;DHT22;23372;52.050;4.810;2023-11-22T12:37:54;7.70;99.90
37528;DHT22;23372;52.050;4.810;2023-11-22T12:40:20;7.80;99.90
37528;DHT22;23372;52.050;4.810;2023-11-22T12:42:50;7.90;99.90
37528;DHT22;23372;52.050;4.810;2023-11-22T12:45:23;8.10;99.90
37528;DHT22;23372;52.050;4.810;2023-11-22T12:47:52;8.20;99.90
37528;DHT22;23372;52.050;4.810;2023-11-22T12:50:32;8.20;99.90
37528;DHT22;23372;52.050;4.810;2023-11-22T12:52:59;8.10;99.90
37528;DHT22;23372;52.050;4.810;2023-11-22T12:55:25;8.20;99.90
37528;DHT22;23372;52.050;4.810;2023-11-22T12:57:58;8.20;99.90
37528;DHT22;23372;52.050;4.810;2023-11-22T13:00:26;8.10;99.90
37528;DHT22;23372;52.050;4.810;2023-11-22T13:02:57;8.10;99.90
37528;DHT22;23372;52.050;4.810;2023-11-22T13:05:23;8.00;99.90
37528;DHT22;23372;52.050;4.810;2023-11-22T13:07:49;8.00;99.90
37528;DHT22;23372;52.050;4.810;2023-11-22T13:10:15;7.90;99.90
37528;DHT22;23372;52.050;4.810;2023-11-22T13:12:43;7.90;99.90
37528;DHT22;23372;52.050;4.810;2023-11-22T13:15:12;8.00;99.90
37528;DHT22;23372;52.050;4.810;2023-11-22T13:17:42;8.00;99.90
37528;DHT22;23372;52.050;4.810;2023-11-22T13:20:08;7.90;99.90
37528;DHT22;23372;52.050;4.810;2023-11-22T13:22:43;7.90;99.90
37528;DHT22;23372;52.050;4.810;2023-11-22T13:25:09;7.90;99.90
37528;DHT22;23372;52.050;4.810;2023-11-22T13:27:38;7.90;99.90
37528;DHT22;23372;52.050;4.810;2023-11-22T13:30:05;7.90;99.90
37528;DHT22;23372;52.050;4.810;2023-11-22T13:32:31;7.80;99.90
37528;DHT22;23372;52.050;4.810;2023-11-22T13:34:56;7.70;99.90
37528;DHT22;23372;52.050;4.810;2023-11-22T13:37:26;7.80;99.90
37528;DHT22;23372;52.050;4.810;2023-11-22T13:39:52;7.70;99.90
37528;DHT22;23372;52.050;4.810;2023-11-22T13:42:18;7.70;99.90
37528;DHT22;23372;52.050;4.810;2023-11-22T13:44:44;7.60;99.90
37528;DHT22;23372;52.050;4.810;2023-11-22T13:47:10;7.60;99.90
37528;DHT22;23372;52.050;4.810;2023-11-22T13:49:36;7.70;99.90
37528;DHT22;23372;52.050;4.810;2023-11-22T13:52:02;7.60;99.90
37528;DHT22;23372;52.050;4.810;2023-11-22T13:54:28;7.60;99.90
37528;DHT22;23372;52.050;4.810;2023-11-22T13:56:54;7.60;99.90
37528;DHT22;23372;52.050;4.810;2023-11-22T13:59:19;7.50;99.90
37528;DHT22;23372;52.050;4.810;2023-11-22T14:01:45;7.40;99.90
37528;DHT22;23372;52.050;4.810;2023-11-22T14:04:11;7.40;99.90
37528;DHT22;23372;52.050;4.810;2023-11-22T14:06:37;7.30;99.90
37528;DHT22;23372;52.050;4.810;2023-11-22T14:09:03;7.30;99.90
37528;DHT22;23372;52.050;4.810;2023-11-22T14:11:28;7.20;99.90
37528;DHT22;23372;52.050;4.810;2023-11-22T14:13:55;7.10;99.90
37528;DHT22;23372;52.050;4.810;2023-11-22T14:16:20;7.10;99.90
37528;DHT22;23372;52.050;4.810;2023-11-22T14:18:46;7.00;99.90
37528;DHT22;23372;52.050;4.810;2023-11-22T14:21:12;7.00;99.90
37528;DHT22;23372;52.050;4.810;2023-11-22T14:23:37;6.90;99.90
37528;DHT22;23372;52.050;4.810;2023-11-22T14:26:03;6.90;99.90
37528;DHT22;23372;52.050;4.810;2023-11-22T14:28:29;6.90;99.90
37528;DHT22;23372;52.050;4.810;2023-11-22T14:30:55;6.90;99.90
37528;DHT22;23372;52.050;4.810;2023-11-22T14:33:21;6.80;99.90
37528;DHT22;23372;52.050;4.810;2023-11-22T14:35:47;6.80;99.90
37528;DHT22;23372;52.050;4.810;2023-11-22T14:38:13;6.90;99.90
37528;DHT22;23372;52.050;4.810;2023-11-22T14:40:39;6.80;99.90
37528;DHT22;23372;52.050;4.810;2023-11-22T14:43:06;6.80;99.90
37528;DHT22;23372;52.050;4.810;2023-11-22T14:45:32;6.70;99.90
37528;DHT22;23372;52.050;4.810;2023-11-22T14:47:58;6.70;99.90
37528;DHT22;23372;52.050;4.810;2023-11-22T14:50:24;6.70;99.90
37528;DHT22;23372;52.050;4.810;2023-11-22T14:52:56;6.60;99.90
37528;DHT22;23372;52.050;4.810;2023-11-22T14:55:22;6.60;99.90
37528;DHT22;23372;52.050;4.810;2023-11-22T14:57:50;6.70;99.90
37528;DHT22;23372;52.050;4.810;2023-11-22T15:00:17;6.70;99.90
37528;DHT22;23372;52.050;4.810;2023-11-22T15:02:43;6.70;99.90
37528;DHT22;23372;52.050;4.810;2023-11-22T15:05:08;6.60;99.90
37528;DHT22;23372;52.050;4.810;2023-11-22T15:07:38;6.70;99.90
37528;DHT22;23372;52.050;4.810;2023-11-22T15:10:08;6.70;99.90
37528;DHT22;23372;52.050;4.810;2023-11-22T15:12:35;6.60;99.90
37528;DHT22;23372;52.050;4.810;2023-11-22T15:15:01;6.70;99.90
37528;DHT22;23372;52.050;4.810;2023-11-22T15:17:27;6.70;99.90
37528;DHT22;23372;52.050;4.810;2023-11-22T15:19:53;6.70;99.90
37528;DHT22;23372;52.050;4.810;2023-11-22T15:22:19;6.60;99.90
37528;DHT22;23372;52.050;4.810;2023-11-22T15:24:44;6.60;99.90
37528;DHT22;23372;52.050;4.810;2023-11-22T15:27:10;6.60;99.90
37528;DHT22;23372;52.050;4.810;2023-11-22T15:29:36;6.60;99.90
37528;DHT22;23372;52.050;4.810;2023-11-22T15:32:01;6.50;99.90
37528;DHT22;23372;52.050;4.810;2023-11-22T15:34:28;6.60;99.90
37528;DHT22;23372;52.050;4.810;2023-11-22T15:36:54;6.50;99.90
37528;DHT22;23372;52.050;4.810;2023-11-22T15:39:19;6.50;99.90
37528;DHT22;23372;52.050;4.810;2023-11-22T15:41:47;6.40;99.90
37528;DHT22;23372;52.050;4.810;2023-11-22T15:44:13;6.40;99.90